createdAt,value
2017-05-30T00:00:36.182Z,0.00
2017-05-30T00:01:37.232Z,0.00
2017-05-30T00:02:32.302Z,0.00
2017-05-30T00:03:27.286Z,0.00
2017-05-30T00:04:22.443Z,0.00
2017-05-30T00:05:22.528Z,0.00
2017-05-30T00:06:10.525Z,0.00
2017-05-30T00:07:04.606Z,0.00
2017-05-30T00:08:04.684Z,0.00
2017-05-30T00:08:58.719Z,0.00
2017-05-30T00:09:53.781Z,0.00
2017-05-30T00:10:48.843Z,0.00
2017-05-30T00:11:42.923Z,0.00
2017-05-30T00:12:30.988Z,0.00
2017-05-30T00:13:19.176Z,0.00
2017-05-30T00:14:19.118Z,0.00
2017-05-30T00:15:14.183Z,0.00
2017-05-30T00:16:03.216Z,0.00
2017-05-30T00:16:52.296Z,0.00
2017-05-30T00:17:40.404Z,0.00
2017-05-30T00:18:34.472Z,0.00
2017-05-30T00:19:28.489Z,0.00
2017-05-30T00:20:22.573Z,0.00
2017-05-30T00:21:16.620Z,0.00
2017-05-30T00:22:05.660Z,0.00
2017-05-30T00:22:54.766Z,0.00
2017-05-30T00:23:48.854Z,0.00
2017-05-30T00:24:37.903Z,0.00
2017-05-30T00:25:31.976Z,0.00
2017-05-30T00:26:26.003Z,0.00
2017-05-30T00:27:14.145Z,0.00
2017-05-30T00:28:03.182Z,0.00
2017-05-30T00:29:03.203Z,0.00
2017-05-30T00:29:58.319Z,0.00
2017-05-30T00:30:52.338Z,0.00
2017-05-30T00:31:47.450Z,0.00
2017-05-30T00:32:41.477Z,0.00
2017-05-30T00:33:35.573Z,0.00
2017-05-30T00:34:30.608Z,0.00
2017-05-30T00:35:25.207Z,0.00
2017-05-30T00:36:18.776Z,0.00
2017-05-30T00:37:06.830Z,0.00
2017-05-30T00:38:06.853Z,0.00
2017-05-30T00:38:55.990Z,0.00
2017-05-30T00:39:50.080Z,0.00
2017-05-30T00:40:44.109Z,0.00
2017-05-30T00:41:38.146Z,0.00
2017-05-30T00:42:32.174Z,0.00
2017-05-30T00:43:27.278Z,0.00
2017-05-30T00:44:16.314Z,0.00
2017-05-30T00:45:10.378Z,0.00
2017-05-30T00:45:59.427Z,0.00
2017-05-30T00:46:53.502Z,0.00
2017-05-30T00:47:42.609Z,0.00
2017-05-30T00:48:42.614Z,0.00
2017-05-30T00:49:43.722Z,0.00
2017-05-30T00:50:37.815Z,0.00
2017-05-30T00:51:25.801Z,0.00
2017-05-30T00:52:19.891Z,0.00
2017-05-30T00:53:14.947Z,0.00
2017-05-30T00:54:09.974Z,0.00
2017-05-30T00:55:04.066Z,0.00
2017-05-30T00:56:04.213Z,0.00
2017-05-30T00:56:59.282Z,0.00
2017-05-30T00:57:53.277Z,0.00
2017-05-30T00:58:47.311Z,0.00
2017-05-30T00:59:47.384Z,0.00
2017-05-30T01:00:42.400Z,0.00
2017-05-30T01:01:37.512Z,0.00
2017-05-30T01:02:31.518Z,0.00
2017-05-30T01:03:21.241Z,0.00
2017-05-30T01:04:14.643Z,0.00
2017-05-30T01:05:14.701Z,0.00
2017-05-30T01:06:09.844Z,0.00
2017-05-30T01:06:58.812Z,0.00
2017-05-30T01:07:47.898Z,0.00
2017-05-30T01:08:36.919Z,0.00
2017-05-30T01:09:25.972Z,0.00
2017-05-30T01:10:14.089Z,0.00
2017-05-30T01:11:09.046Z,0.00
2017-05-30T01:12:04.241Z,0.00
2017-05-30T01:12:59.208Z,0.00
2017-05-30T01:13:53.211Z,0.00
2017-05-30T01:14:47.257Z,0.00
2017-05-30T01:15:41.328Z,0.00
2017-05-30T01:16:36.351Z,0.00
2017-05-30T01:17:31.499Z,0.00
2017-05-30T01:18:20.534Z,0.00
2017-05-30T01:19:09.560Z,0.00
2017-05-30T01:20:09.545Z,0.00
2017-05-30T01:21:03.633Z,0.00
2017-05-30T01:21:57.638Z,0.00
2017-05-30T01:22:46.675Z,0.00
2017-05-30T01:23:41.841Z,0.00
2017-05-30T01:24:36.879Z,0.00
2017-05-30T01:25:36.905Z,0.00
2017-05-30T01:26:36.965Z,0.00
2017-05-30T01:27:26.016Z,0.00
2017-05-30T01:28:20.167Z,0.00
2017-05-30T01:29:14.113Z,0.00
2017-05-30T01:30:09.669Z,0.00
2017-05-30T01:30:58.229Z,0.00
2017-05-30T01:31:47.325Z,0.00
2017-05-30T01:32:41.399Z,0.00
2017-05-30T01:33:36.399Z,0.00
2017-05-30T01:34:30.519Z,0.00
2017-05-30T01:35:20.190Z,0.00
2017-05-30T01:36:08.595Z,0.00
2017-05-30T01:36:57.675Z,0.00
2017-05-30T01:37:57.758Z,0.00
2017-05-30T01:38:58.820Z,0.00
2017-05-30T01:39:47.889Z,0.00
2017-05-30T01:40:41.909Z,0.00
2017-05-30T01:41:35.995Z,0.00
2017-05-30T01:42:25.040Z,0.00
2017-05-30T01:43:19.718Z,0.00
2017-05-30T01:44:13.158Z,0.00
2017-05-30T01:45:02.750Z,0.00
2017-05-30T01:45:56.187Z,0.00
2017-05-30T01:46:50.297Z,0.00
2017-05-30T01:47:39.355Z,0.00
2017-05-30T01:48:33.375Z,0.00
2017-05-30T01:49:33.503Z,0.00
2017-05-30T01:50:33.484Z,0.00
2017-05-30T01:51:27.581Z,0.00
2017-05-30T01:52:27.579Z,0.00
2017-05-30T01:53:21.648Z,0.00
2017-05-30T01:54:15.684Z,0.00
2017-05-30T01:55:04.083Z,0.00
2017-05-30T01:55:51.796Z,0.00
2017-05-30T01:56:45.875Z,0.00
2017-05-30T01:57:40.042Z,0.00
2017-05-30T01:58:28.993Z,0.00
2017-05-30T01:59:23.085Z,0.00
2017-05-30T02:00:11.493Z,0.00
2017-05-30T02:01:06.154Z,0.00
2017-05-30T02:02:00.269Z,0.00
2017-05-30T02:02:54.337Z,0.00
2017-05-30T02:03:54.395Z,0.00
2017-05-30T02:04:43.351Z,0.00
2017-05-30T02:05:38.483Z,0.00
2017-05-30T02:06:32.497Z,0.00
2017-05-30T02:07:20.736Z,0.00
2017-05-30T02:08:14.675Z,0.00
2017-05-30T02:09:20.681Z,0.00
2017-05-30T02:10:20.701Z,0.00
2017-05-30T02:11:14.782Z,0.00
2017-05-30T02:12:09.816Z,0.00
2017-05-30T02:12:58.897Z,0.00
2017-05-30T02:13:47.937Z,0.00
2017-05-30T02:14:42.610Z,0.00
2017-05-30T02:15:36.033Z,0.00
2017-05-30T02:16:25.187Z,0.00
2017-05-30T02:17:19.094Z,0.00
2017-05-30T02:18:13.197Z,0.00
2017-05-30T02:19:13.174Z,0.00
2017-05-30T02:20:07.794Z,0.00
2017-05-30T02:21:08.335Z,0.00
2017-05-30T02:22:02.398Z,0.00
2017-05-30T02:23:03.411Z,0.00
2017-05-30T02:23:57.429Z,0.00
2017-05-30T02:24:57.484Z,0.00
2017-05-30T02:25:51.496Z,0.00
2017-05-30T02:26:57.541Z,0.00
2017-05-30T02:27:57.605Z,0.00
2017-05-30T02:28:52.606Z,0.00
2017-05-30T02:29:52.746Z,0.00
2017-05-30T02:30:52.738Z,0.00
2017-05-30T02:31:52.785Z,0.00
2017-05-30T02:32:58.826Z,0.00
2017-05-30T02:33:58.823Z,0.00
2017-05-30T02:34:52.866Z,0.00
2017-05-30T02:35:52.871Z,0.00
2017-05-30T02:36:47.965Z,0.00
2017-05-30T02:37:42.985Z,0.00
2017-05-30T02:38:43.046Z,0.00
2017-05-30T02:39:38.104Z,0.00
2017-05-30T02:40:33.116Z,0.00
2017-05-30T02:41:34.143Z,0.00
2017-05-30T02:42:34.164Z,0.00
2017-05-30T02:43:29.201Z,0.00
2017-05-30T02:44:29.278Z,0.00
2017-05-30T02:45:23.294Z,0.00
2017-05-30T02:46:23.377Z,0.00
2017-05-30T02:47:18.944Z,0.00
2017-05-30T02:48:13.434Z,0.00
2017-05-30T02:49:02.482Z,0.00
2017-05-30T02:49:57.880Z,0.00
2017-05-30T02:50:57.594Z,0.00
2017-05-30T02:51:57.594Z,0.00
2017-05-30T02:52:52.696Z,0.00
2017-05-30T02:53:52.695Z,0.00
2017-05-30T02:54:48.310Z,0.00
2017-05-30T02:55:36.845Z,0.00
2017-05-30T02:56:25.823Z,0.00
2017-05-30T02:57:19.887Z,0.00
2017-05-30T02:58:19.876Z,0.00
2017-05-30T02:59:14.957Z,0.00
2017-05-30T03:00:10.034Z,0.00
2017-05-30T03:01:10.030Z,0.00
2017-05-30T03:02:05.096Z,0.00
2017-05-30T03:02:59.081Z,0.00
2017-05-30T03:03:53.185Z,0.00
2017-05-30T03:04:54.186Z,0.00
2017-05-30T03:05:55.224Z,0.00
2017-05-30T03:06:49.462Z,0.00
2017-05-30T03:07:49.300Z,0.00
2017-05-30T03:08:44.384Z,0.00
2017-05-30T03:09:39.410Z,0.00
2017-05-30T03:10:39.441Z,0.00
2017-05-30T03:11:34.476Z,0.00
2017-05-30T03:12:29.521Z,0.00
2017-05-30T03:13:23.573Z,0.00
2017-05-30T03:14:17.570Z,0.00
2017-05-30T03:15:06.659Z,0.00
2017-05-30T03:15:55.694Z,0.00
2017-05-30T03:16:44.794Z,0.00
2017-05-30T03:17:33.789Z,0.00
2017-05-30T03:18:27.880Z,0.00
2017-05-30T03:19:21.876Z,0.00
2017-05-30T03:20:09.956Z,0.00
2017-05-30T03:21:04.031Z,0.00
2017-05-30T03:21:58.025Z,0.00
2017-05-30T03:22:52.149Z,0.00
2017-05-30T03:23:46.129Z,0.00
2017-05-30T03:24:46.876Z,0.00
2017-05-30T03:25:46.202Z,0.00
2017-05-30T03:26:41.261Z,0.00
2017-05-30T03:27:30.282Z,0.00
2017-05-30T03:28:30.333Z,0.00
2017-05-30T03:29:24.377Z,0.01
2017-05-30T03:30:24.391Z,0.01
2017-05-30T03:31:19.480Z,0.01
2017-05-30T03:32:19.475Z,0.01
2017-05-30T03:33:08.577Z,0.01
2017-05-30T03:34:08.587Z,0.01
2017-05-30T03:35:02.585Z,0.01
2017-05-30T03:35:51.664Z,0.01
2017-05-30T03:36:45.688Z,0.01
2017-05-30T03:37:40.761Z,0.01
2017-05-30T03:38:41.806Z,0.01
2017-05-30T03:39:41.888Z,0.01
2017-05-30T03:40:30.885Z,0.01
2017-05-30T03:41:19.931Z,0.01
2017-05-30T03:42:08.004Z,0.01
2017-05-30T03:42:56.057Z,0.01
2017-05-30T03:43:50.111Z,0.01
2017-05-30T03:44:50.570Z,0.01
2017-05-30T03:45:44.183Z,0.01
2017-05-30T03:46:38.220Z,0.01
2017-05-30T03:47:38.267Z,0.01
2017-05-30T03:48:27.301Z,0.01
2017-05-30T03:49:16.327Z,0.02
2017-05-30T03:50:16.534Z,0.02
2017-05-30T03:51:10.388Z,0.02
2017-05-30T03:52:11.544Z,0.02
2017-05-30T03:53:12.518Z,0.02
2017-05-30T03:54:13.535Z,0.02
2017-05-30T03:55:07.582Z,0.02
2017-05-30T03:56:01.837Z,0.02
2017-05-30T03:56:55.639Z,0.02
2017-05-30T03:57:50.701Z,0.02
2017-05-30T03:58:50.793Z,0.02
2017-05-30T03:59:46.425Z,0.02
2017-05-30T04:00:34.839Z,0.02
2017-05-30T04:01:23.897Z,0.02
2017-05-30T04:02:11.980Z,0.02
2017-05-30T04:03:00.967Z,0.02
2017-05-30T04:03:55.015Z,0.02
2017-05-30T04:04:43.198Z,0.02
2017-05-30T04:05:31.112Z,0.02
2017-05-30T04:06:25.123Z,0.02
2017-05-30T04:07:14.527Z,0.02
2017-05-30T04:08:09.253Z,0.02
2017-05-30T04:09:09.292Z,0.02
2017-05-30T04:10:04.307Z,0.02
2017-05-30T04:10:59.394Z,0.02
2017-05-30T04:11:59.498Z,0.02
2017-05-30T04:12:54.457Z,0.02
2017-05-30T04:13:49.486Z,0.02
2017-05-30T04:14:43.861Z,0.02
2017-05-30T04:15:43.577Z,0.02
2017-05-30T04:16:38.642Z,0.02
2017-05-30T04:17:38.702Z,0.02
2017-05-30T04:18:38.683Z,0.02
2017-05-30T04:19:38.790Z,0.02
2017-05-30T04:20:32.778Z,0.02
2017-05-30T04:21:32.816Z,0.03
2017-05-30T04:22:27.890Z,0.03
2017-05-30T04:23:22.923Z,0.03
2017-05-30T04:24:23.003Z,0.03
2017-05-30T04:25:23.001Z,0.03
2017-05-30T04:26:17.045Z,0.03
2017-05-30T04:27:11.082Z,0.03
2017-05-30T04:27:59.198Z,0.04
2017-05-30T04:28:53.279Z,0.04
2017-05-30T04:29:53.252Z,0.04
2017-05-30T04:30:48.289Z,0.05
2017-05-30T04:31:43.296Z,0.05
2017-05-30T04:32:31.364Z,0.05
2017-05-30T04:33:26.467Z,0.05
2017-05-30T04:34:21.569Z,0.05
2017-05-30T04:35:10.494Z,0.05
2017-05-30T04:36:10.545Z,0.05
2017-05-30T04:37:04.565Z,0.06
2017-05-30T04:37:53.619Z,0.07
2017-05-30T04:38:47.636Z,0.07
2017-05-30T04:39:41.798Z,0.08
2017-05-30T04:40:36.816Z,0.08
2017-05-30T04:41:25.795Z,0.08
2017-05-30T04:42:14.883Z,0.08
2017-05-30T04:43:15.539Z,0.08
2017-05-30T04:44:08.993Z,0.09
2017-05-30T04:44:57.083Z,0.08
2017-05-30T04:45:46.079Z,0.08
2017-05-30T04:46:41.104Z,0.07
2017-05-30T04:47:35.157Z,0.07
2017-05-30T04:48:30.157Z,0.07
2017-05-30T04:49:19.250Z,0.07
2017-05-30T04:50:08.283Z,0.07
2017-05-30T04:50:57.341Z,0.07
2017-05-30T04:51:46.440Z,0.07
2017-05-30T04:52:40.581Z,0.07
2017-05-30T04:53:35.507Z,0.07
2017-05-30T04:54:24.533Z,0.07
2017-05-30T04:55:19.636Z,0.07
2017-05-30T04:56:07.725Z,0.07
2017-05-30T04:57:01.705Z,0.07
2017-05-30T04:57:56.846Z,0.08
2017-05-30T04:58:56.889Z,0.09
2017-05-30T04:59:50.945Z,0.09
2017-05-30T05:00:51.040Z,0.10
2017-05-30T05:01:40.046Z,0.11
2017-05-30T05:02:40.106Z,0.12
2017-05-30T05:03:40.152Z,0.12
2017-05-30T05:04:47.768Z,0.12
2017-05-30T05:05:47.249Z,0.12
2017-05-30T05:06:47.298Z,0.12
2017-05-30T05:07:41.386Z,0.11
2017-05-30T05:08:35.436Z,0.12
2017-05-30T05:09:29.490Z,0.12
2017-05-30T05:10:23.537Z,0.12
2017-05-30T05:11:13.035Z,0.12
2017-05-30T05:12:12.990Z,0.13
2017-05-30T05:13:06.699Z,0.13
2017-05-30T05:14:00.799Z,0.14
2017-05-30T05:15:00.795Z,0.15
2017-05-30T05:15:54.857Z,0.17
2017-05-30T05:16:54.911Z,0.19
2017-05-30T05:17:49.305Z,0.20
2017-05-30T05:18:50.044Z,0.19
2017-05-30T05:19:45.348Z,0.20
2017-05-30T05:20:40.797Z,0.21
2017-05-30T05:21:34.270Z,0.21
2017-05-30T05:22:28.308Z,0.21
2017-05-30T05:23:17.693Z,0.21
2017-05-30T05:24:06.467Z,0.22
2017-05-30T05:24:55.526Z,0.22
2017-05-30T05:25:55.584Z,0.23
2017-05-30T05:26:49.602Z,0.23
2017-05-30T05:27:49.656Z,0.23
2017-05-30T05:28:39.310Z,0.24
2017-05-30T05:29:33.858Z,0.24
2017-05-30T05:30:21.918Z,0.25
2017-05-30T05:31:22.004Z,0.26
2017-05-30T05:32:17.071Z,0.25
2017-05-30T05:33:17.151Z,0.26
2017-05-30T05:34:17.504Z,0.27
2017-05-30T05:35:17.264Z,0.27
2017-05-30T05:36:12.756Z,0.28
2017-05-30T05:37:07.690Z,0.29
2017-05-30T05:37:55.492Z,0.29
2017-05-30T05:38:44.605Z,0.30
2017-05-30T05:39:39.625Z,0.29
2017-05-30T05:40:28.679Z,0.29
2017-05-30T05:41:22.702Z,0.23
2017-05-30T05:42:16.780Z,0.20
2017-05-30T05:43:10.913Z,0.20
2017-05-30T05:44:05.018Z,0.18
2017-05-30T05:44:54.283Z,0.18
2017-05-30T05:45:43.110Z,0.17
2017-05-30T05:46:38.276Z,0.17
2017-05-30T05:47:33.223Z,0.17
2017-05-30T05:48:27.351Z,0.18
2017-05-30T05:49:21.354Z,0.18
2017-05-30T05:50:09.590Z,0.19
2017-05-30T05:51:03.529Z,0.20
2017-05-30T05:51:52.599Z,0.27
2017-05-30T05:52:46.708Z,0.27
2017-05-30T05:53:34.739Z,0.27
2017-05-30T05:54:34.796Z,0.24
2017-05-30T05:55:35.093Z,0.27
2017-05-30T05:56:34.885Z,0.32
2017-05-30T05:57:35.015Z,0.34
2017-05-30T05:58:29.114Z,0.34
2017-05-30T05:59:23.151Z,0.35
2017-05-30T06:00:11.457Z,0.33
2017-05-30T06:01:05.295Z,0.31
2017-05-30T06:01:54.385Z,0.35
2017-05-30T06:02:42.480Z,0.31
2017-05-30T06:03:37.491Z,0.27
2017-05-30T06:04:31.598Z,0.29
2017-05-30T06:05:26.624Z,0.25
2017-05-30T06:06:20.833Z,0.25
2017-05-30T06:07:15.080Z,0.33
2017-05-30T06:08:09.031Z,0.35
2017-05-30T06:09:03.885Z,0.31
2017-05-30T06:09:53.551Z,0.36
2017-05-30T06:10:48.098Z,0.36
2017-05-30T06:11:36.142Z,0.35
2017-05-30T06:12:31.227Z,0.35
2017-05-30T06:13:25.293Z,0.35
2017-05-30T06:14:20.393Z,0.35
2017-05-30T06:15:20.445Z,0.34
2017-05-30T06:16:15.508Z,0.36
2017-05-30T06:17:04.889Z,0.34
2017-05-30T06:17:58.846Z,0.35
2017-05-30T06:18:52.816Z,0.36
2017-05-30T06:19:48.466Z,0.34
2017-05-30T06:20:37.320Z,0.35
2017-05-30T06:21:31.014Z,0.36
2017-05-30T06:22:31.111Z,0.36
2017-05-30T06:23:19.207Z,0.36
2017-05-30T06:24:07.146Z,0.36
2017-05-30T06:24:55.415Z,0.36
2017-05-30T06:25:50.334Z,0.36
2017-05-30T06:26:45.421Z,0.36
2017-05-30T06:27:34.522Z,0.37
2017-05-30T06:28:34.578Z,0.36
2017-05-30T06:29:28.611Z,0.33
2017-05-30T06:30:17.665Z,0.34
2017-05-30T06:31:06.868Z,0.38
2017-05-30T06:32:00.896Z,0.40
2017-05-30T06:33:00.932Z,0.39
2017-05-30T06:33:56.378Z,0.41
2017-05-30T06:34:51.915Z,0.41
2017-05-30T06:35:46.201Z,0.36
2017-05-30T06:36:41.219Z,0.43
2017-05-30T06:37:41.302Z,0.45
2017-05-30T06:38:35.569Z,0.44
2017-05-30T06:39:29.422Z,0.46
2017-05-30T06:40:24.655Z,0.47
2017-05-30T06:41:18.585Z,0.48
2017-05-30T06:42:14.129Z,0.50
2017-05-30T06:43:13.922Z,0.51
2017-05-30T06:44:15.370Z,0.51
2017-05-30T06:45:14.897Z,0.49
2017-05-30T06:46:14.961Z,0.48
2017-05-30T06:47:09.014Z,0.49
2017-05-30T06:47:57.073Z,0.47
2017-05-30T06:48:51.171Z,0.34
2017-05-30T06:49:40.295Z,0.31
2017-05-30T06:50:29.675Z,0.29
2017-05-30T06:51:17.776Z,0.31
2017-05-30T06:52:11.513Z,0.25
2017-05-30T06:53:06.642Z,0.24
2017-05-30T06:54:06.649Z,0.23
2017-05-30T06:55:06.736Z,0.23
2017-05-30T06:56:12.815Z,0.23
2017-05-30T06:57:06.910Z,0.24
2017-05-30T06:58:00.975Z,0.25
2017-05-30T06:58:55.046Z,0.23
2017-05-30T06:59:49.724Z,0.23
2017-05-30T07:00:43.501Z,0.21
2017-05-30T07:01:37.206Z,0.21
2017-05-30T07:02:32.456Z,0.22
2017-05-30T07:03:26.314Z,0.24
2017-05-30T07:04:15.516Z,0.25
2017-05-30T07:05:15.577Z,0.25
2017-05-30T07:06:10.031Z,0.24
2017-05-30T07:07:09.862Z,0.23
2017-05-30T07:08:09.715Z,0.25
2017-05-30T07:08:58.709Z,0.27
2017-05-30T07:09:58.818Z,0.28
2017-05-30T07:10:53.878Z,0.28
2017-05-30T07:11:48.966Z,0.26
2017-05-30T07:12:43.065Z,0.24
2017-05-30T07:13:37.083Z,0.23
2017-05-30T07:14:31.202Z,0.24
2017-05-30T07:15:26.236Z,0.24
2017-05-30T07:16:15.363Z,0.27
2017-05-30T07:17:09.384Z,0.29
2017-05-30T07:17:58.506Z,0.27
2017-05-30T07:18:59.543Z,0.25
2017-05-30T07:19:54.245Z,0.25
2017-05-30T07:20:42.637Z,0.26
2017-05-30T07:21:37.693Z,0.26
2017-05-30T07:22:32.786Z,0.26
2017-05-30T07:23:32.824Z,0.25
2017-05-30T07:24:27.902Z,0.27
2017-05-30T07:25:28.019Z,0.34
2017-05-30T07:26:22.370Z,0.42
2017-05-30T07:27:16.141Z,0.52
2017-05-30T07:28:05.180Z,0.52
2017-05-30T07:29:00.189Z,0.41
2017-05-30T07:29:55.007Z,0.56
2017-05-30T07:30:43.385Z,0.47
2017-05-30T07:31:32.999Z,0.42
2017-05-30T07:32:21.766Z,0.38
2017-05-30T07:33:21.622Z,0.35
2017-05-30T07:34:15.727Z,0.35
2017-05-30T07:35:10.363Z,0.43
2017-05-30T07:36:03.865Z,0.34
2017-05-30T07:36:58.908Z,0.59
2017-05-30T07:37:48.295Z,0.62
2017-05-30T07:38:36.070Z,0.59
2017-05-30T07:39:30.454Z,0.64
2017-05-30T07:40:30.557Z,0.63
2017-05-30T07:41:24.385Z,0.64
2017-05-30T07:42:18.357Z,0.62
2017-05-30T07:43:12.857Z,0.55
2017-05-30T07:44:06.515Z,0.49
2017-05-30T07:44:56.044Z,0.62
2017-05-30T07:45:50.708Z,0.45
2017-05-30T07:46:39.742Z,0.58
2017-05-30T07:47:34.781Z,0.61
2017-05-30T07:48:28.915Z,0.48
2017-05-30T07:49:29.015Z,0.54
2017-05-30T07:50:18.604Z,0.58
2017-05-30T07:51:07.097Z,0.68
2017-05-30T07:52:01.219Z,0.64
2017-05-30T07:52:50.286Z,0.52
2017-05-30T07:53:39.410Z,0.58
2017-05-30T07:54:33.500Z,0.62
2017-05-30T07:55:27.521Z,0.61
2017-05-30T07:56:21.628Z,0.64
2017-05-30T07:57:21.707Z,0.66
2017-05-30T07:58:15.991Z,0.66
2017-05-30T07:59:10.460Z,0.67
2017-05-30T07:59:58.279Z,0.68
2017-05-30T08:00:47.329Z,0.67
2017-05-30T08:01:42.161Z,0.68
2017-05-30T08:02:36.119Z,0.68
2017-05-30T08:03:37.352Z,0.61
2017-05-30T08:04:26.524Z,0.70
2017-05-30T08:05:21.422Z,0.69
2017-05-30T08:06:10.472Z,0.68
2017-05-30T08:07:05.558Z,0.68
2017-05-30T08:08:05.608Z,0.69
2017-05-30T08:09:01.048Z,0.70
2017-05-30T08:09:49.139Z,0.74
2017-05-30T08:10:49.386Z,0.74
2017-05-30T08:11:43.430Z,0.74
2017-05-30T08:12:37.475Z,0.73
2017-05-30T08:13:31.615Z,0.75
2017-05-30T08:14:26.756Z,0.73
2017-05-30T08:15:20.774Z,0.73
2017-05-30T08:16:20.802Z,0.76
2017-05-30T08:17:21.896Z,0.80
2017-05-30T08:18:22.020Z,0.75
2017-05-30T08:19:10.172Z,0.44
2017-05-30T08:20:10.205Z,0.79
2017-05-30T08:21:10.241Z,0.79
2017-05-30T08:22:10.301Z,0.77
2017-05-30T08:23:04.472Z,0.77
2017-05-30T08:23:58.503Z,0.76
2017-05-30T08:24:47.640Z,0.70
2017-05-30T08:25:42.708Z,0.80
2017-05-30T08:26:36.715Z,0.78
2017-05-30T08:27:25.774Z,0.79
2017-05-30T08:28:13.900Z,0.77
2017-05-30T08:29:02.977Z,0.79
2017-05-30T08:29:57.080Z,0.83
2017-05-30T08:30:50.618Z,0.56
2017-05-30T08:31:45.708Z,0.80
2017-05-30T08:32:34.868Z,0.76
2017-05-30T08:33:28.885Z,0.80
2017-05-30T08:34:18.532Z,0.82
2017-05-30T08:35:13.409Z,0.70
2017-05-30T08:36:07.645Z,0.35
2017-05-30T08:36:56.775Z,0.83
2017-05-30T08:37:56.851Z,0.88
2017-05-30T08:38:50.669Z,0.65
2017-05-30T08:39:45.496Z,0.76
2017-05-30T08:40:39.937Z,0.78
2017-05-30T08:41:29.044Z,0.78
2017-05-30T08:42:23.005Z,0.75
2017-05-30T08:43:17.380Z,0.68
2017-05-30T08:44:05.895Z,0.61
2017-05-30T08:45:00.259Z,0.63
2017-05-30T08:45:49.607Z,0.56
2017-05-30T08:46:43.184Z,0.48
2017-05-30T08:47:37.220Z,0.50
2017-05-30T08:48:31.310Z,0.55
2017-05-30T08:49:26.771Z,0.88
2017-05-30T08:50:15.568Z,0.86
2017-05-30T08:51:10.943Z,0.86
2017-05-30T08:52:04.786Z,0.87
2017-05-30T08:52:53.984Z,0.87
2017-05-30T08:53:48.354Z,0.36
2017-05-30T08:54:43.281Z,0.30
2017-05-30T08:55:38.048Z,0.81
2017-05-30T08:56:27.402Z,0.82
2017-05-30T08:57:16.160Z,0.30
2017-05-30T08:58:16.170Z,0.86
2017-05-30T08:59:11.341Z,0.85
2017-05-30T09:00:00.485Z,0.84
2017-05-30T09:00:54.729Z,0.82
2017-05-30T09:01:48.745Z,0.83
2017-05-30T09:02:44.210Z,0.88
2017-05-30T09:03:39.205Z,0.40
2017-05-30T09:04:33.405Z,0.36
2017-05-30T09:05:22.248Z,0.40
2017-05-30T09:06:11.111Z,0.98
2017-05-30T09:07:06.028Z,0.94
2017-05-30T09:08:06.641Z,0.96
2017-05-30T09:08:55.511Z,0.98
2017-05-30T09:09:50.329Z,0.99
2017-05-30T09:10:39.980Z,0.61
2017-05-30T09:11:39.976Z,0.85
2017-05-30T09:12:28.091Z,0.47
2017-05-30T09:13:16.163Z,0.96
2017-05-30T09:14:10.225Z,0.93
2017-05-30T09:14:58.739Z,0.92
2017-05-30T09:15:46.426Z,0.44
2017-05-30T09:16:41.536Z,0.92
2017-05-30T09:17:35.609Z,0.94
2017-05-30T09:18:29.607Z,0.97
2017-05-30T09:19:23.716Z,0.96
2017-05-30T09:20:18.871Z,0.95
2017-05-30T09:21:13.849Z,0.74
2017-05-30T09:22:09.079Z,0.95
2017-05-30T09:23:03.108Z,0.43
2017-05-30T09:23:58.188Z,0.51
2017-05-30T09:24:58.247Z,0.95
2017-05-30T09:25:58.411Z,0.49
2017-05-30T09:26:59.459Z,0.46
2017-05-30T09:27:54.476Z,0.56
2017-05-30T09:28:54.569Z,0.53
2017-05-30T09:29:55.765Z,0.37
2017-05-30T09:30:49.689Z,0.42
2017-05-30T09:31:44.908Z,0.39
2017-05-30T09:32:38.943Z,0.41
2017-05-30T09:33:33.022Z,0.93
2017-05-30T09:34:27.108Z,0.41
2017-05-30T09:35:21.179Z,0.38
2017-05-30T09:36:15.176Z,0.42
2017-05-30T09:37:09.353Z,0.40
2017-05-30T09:38:03.438Z,0.47
2017-05-30T09:38:57.516Z,0.98
2017-05-30T09:39:51.583Z,0.78
2017-05-30T09:40:39.593Z,0.98
2017-05-30T09:41:28.630Z,0.66
2017-05-30T09:42:17.854Z,0.93
2017-05-30T09:43:17.449Z,0.42
2017-05-30T09:44:06.502Z,0.39
2017-05-30T09:45:00.946Z,0.50
2017-05-30T09:45:56.059Z,0.45
2017-05-30T09:46:49.771Z,0.93
2017-05-30T09:47:44.822Z,0.78
2017-05-30T09:48:39.275Z,0.36
2017-05-30T09:49:26.950Z,0.38
2017-05-30T09:50:16.512Z,0.36
2017-05-30T09:51:10.157Z,0.38
2017-05-30T09:51:58.719Z,0.85
2017-05-30T09:52:52.749Z,0.34
2017-05-30T09:53:46.380Z,0.54
2017-05-30T09:54:41.480Z,0.85
2017-05-30T09:55:35.531Z,0.96
2017-05-30T09:56:35.581Z,0.96
2017-05-30T09:57:29.663Z,0.94
2017-05-30T09:58:25.063Z,0.95
2017-05-30T09:59:14.458Z,0.95
2017-05-30T10:00:02.055Z,0.45
2017-05-30T10:00:56.175Z,0.96
2017-05-30T10:01:50.207Z,0.72
2017-05-30T10:02:50.139Z,0.49
2017-05-30T10:03:39.356Z,0.43
2017-05-30T10:04:33.410Z,0.95
2017-05-30T10:05:21.516Z,0.43
2017-05-30T10:06:21.524Z,0.39
2017-05-30T10:07:10.574Z,0.35
2017-05-30T10:07:59.951Z,0.37
2017-05-30T10:08:49.093Z,0.53
2017-05-30T10:09:48.870Z,0.96
2017-05-30T10:10:42.926Z,0.36
2017-05-30T10:11:32.474Z,0.34
2017-05-30T10:12:26.142Z,0.34
2017-05-30T10:13:15.162Z,0.37
2017-05-30T10:14:04.505Z,0.99
2017-05-30T10:15:04.327Z,1.00
2017-05-30T10:15:58.928Z,0.95
2017-05-30T10:17:04.985Z,0.96
2017-05-30T10:17:59.643Z,0.74
2017-05-30T10:18:49.080Z,0.36
2017-05-30T10:19:42.767Z,0.28
2017-05-30T10:20:42.768Z,0.23
2017-05-30T10:21:43.084Z,0.26
2017-05-30T10:22:38.013Z,0.31
2017-05-30T10:23:32.091Z,0.36
2017-05-30T10:24:21.110Z,0.36
2017-05-30T10:25:15.229Z,0.79
2017-05-30T10:26:10.311Z,0.90
2017-05-30T10:27:04.555Z,0.95
2017-05-30T10:27:58.479Z,0.99
2017-05-30T10:28:53.012Z,0.39
2017-05-30T10:29:41.617Z,0.30
2017-05-30T10:30:30.668Z,0.31
2017-05-30T10:31:20.112Z,0.31
2017-05-30T10:32:15.322Z,0.30
2017-05-30T10:33:04.443Z,0.34
2017-05-30T10:33:57.984Z,0.90
2017-05-30T10:34:53.442Z,0.95
2017-05-30T10:35:42.285Z,1.01
2017-05-30T10:36:37.802Z,0.66
2017-05-30T10:37:31.614Z,0.93
2017-05-30T10:38:26.394Z,0.50
2017-05-30T10:39:15.517Z,0.46
2017-05-30T10:40:09.627Z,0.93
2017-05-30T10:40:59.182Z,0.94
2017-05-30T10:41:53.813Z,0.94
2017-05-30T10:42:42.783Z,0.92
2017-05-30T10:43:32.180Z,0.96
2017-05-30T10:44:20.015Z,0.93
2017-05-30T10:45:08.419Z,0.97
2017-05-30T10:46:02.839Z,0.98
2017-05-30T10:46:56.702Z,0.99
2017-05-30T10:47:50.832Z,0.96
2017-05-30T10:48:50.908Z,0.97
2017-05-30T10:49:50.665Z,1.04
2017-05-30T10:50:46.043Z,0.98
2017-05-30T10:51:40.988Z,0.96
2017-05-30T10:52:29.233Z,0.97
2017-05-30T10:53:22.953Z,0.96
2017-05-30T10:54:23.313Z,0.94
2017-05-30T10:55:17.483Z,0.97
2017-05-30T10:56:06.500Z,0.99
2017-05-30T10:56:55.688Z,0.98
2017-05-30T10:57:49.672Z,1.00
2017-05-30T10:58:38.846Z,0.99
2017-05-30T10:59:27.932Z,1.03
2017-05-30T11:00:22.089Z,1.01
2017-05-30T11:01:11.182Z,0.95
2017-05-30T11:02:05.282Z,0.88
2017-05-30T11:02:54.371Z,0.58
2017-05-30T11:03:49.396Z,0.94
2017-05-30T11:04:44.434Z,1.08
2017-05-30T11:05:38.576Z,0.60
2017-05-30T11:06:27.716Z,0.40
2017-05-30T11:07:16.646Z,0.41
2017-05-30T11:08:11.573Z,0.41
2017-05-30T11:09:05.775Z,0.42
2017-05-30T11:10:00.061Z,0.53
2017-05-30T11:11:00.989Z,0.75
2017-05-30T11:11:55.932Z,0.99
2017-05-30T11:12:49.827Z,1.03
2017-05-30T11:13:43.828Z,0.99
2017-05-30T11:14:38.234Z,0.74
2017-05-30T11:15:38.070Z,0.47
2017-05-30T11:16:33.047Z,0.36
2017-05-30T11:17:33.274Z,0.34
2017-05-30T11:18:28.090Z,0.32
2017-05-30T11:19:27.299Z,0.33
2017-05-30T11:20:15.352Z,0.34
2017-05-30T11:21:15.491Z,0.34
2017-05-30T11:22:09.970Z,0.33
2017-05-30T11:22:58.613Z,0.32
2017-05-30T11:23:48.040Z,0.31
2017-05-30T11:24:47.791Z,0.31
2017-05-30T11:25:36.874Z,0.30
2017-05-30T11:26:31.016Z,0.28
2017-05-30T11:27:25.405Z,0.27
2017-05-30T11:28:20.106Z,0.26
2017-05-30T11:29:14.752Z,0.25
2017-05-30T11:30:14.552Z,0.24
2017-05-30T11:31:14.324Z,0.14
2017-05-30T11:32:08.452Z,0.22
2017-05-30T11:33:08.478Z,0.22
2017-05-30T11:34:08.806Z,0.21
2017-05-30T11:35:08.678Z,0.22
2017-05-30T11:35:57.724Z,0.22
2017-05-30T11:36:51.836Z,0.20
2017-05-30T11:37:46.897Z,0.18
2017-05-30T11:38:47.007Z,0.17
2017-05-30T11:39:41.408Z,0.17
2017-05-30T11:40:35.144Z,0.18
2017-05-30T11:41:30.153Z,0.20
2017-05-30T11:42:24.269Z,0.24
2017-05-30T11:43:19.295Z,0.41
2017-05-30T11:44:14.457Z,0.81
2017-05-30T11:45:09.063Z,0.49
2017-05-30T11:45:56.566Z,0.51
2017-05-30T11:46:51.603Z,0.70
2017-05-30T11:47:45.706Z,0.93
2017-05-30T11:48:39.824Z,0.60
2017-05-30T11:49:33.869Z,0.56
2017-05-30T11:50:27.923Z,0.77
2017-05-30T11:51:21.995Z,0.54
2017-05-30T11:52:16.533Z,0.36
2017-05-30T11:53:10.160Z,0.26
2017-05-30T11:54:04.253Z,0.23
2017-05-30T11:54:53.391Z,0.23
2017-05-30T11:55:48.394Z,0.22
2017-05-30T11:56:42.956Z,0.21
2017-05-30T11:57:37.639Z,0.20
2017-05-30T11:58:25.639Z,0.18
2017-05-30T11:59:20.061Z,0.16
2017-05-30T12:00:14.077Z,0.15
2017-05-30T12:01:13.898Z,0.14